Time;durP1;ratioP1;P1;durP2;ratioP2;P2;SDS_P1;SDS_P2;PMS_P1;PMS_P2;Temp;Humidity;BMP_temperature;BMP_pressure;BME280_temperature;BME280_humidity;BME280_pressure;Samples;Min_cycle;Max_cycle;Signal;HPM_P1;HPM_P2
2022/11/22 00:00:01;;;;;;;;;;;17.70;80.80;;;;;;5113385;28;19997;-66
2022/11/22 00:02:27;;;;;;;;;;;17.80;81.20;;;;;;5106606;28;19958;-66
2022/11/22 00:04:54;;;;;;;;;;;17.70;80.90;;;;;;5113031;28;19999;-61
2022/11/22 00:07:21;;;;;;;;;;;17.50;82.70;;;;;;5113512;28;19915;-64
2022/11/22 00:09:47;;;;;;;;;;;17.90;81.80;;;;;;5113444;28;19919;-61
2022/11/22 00:12:14;;;;;;;;;;;17.90;80.10;;;;;;5097619;28;19908;-67
2022/11/22 00:14:41;;;;;;;;;;;18.00;79.60;;;;;;5116942;28;19907;-61
2022/11/22 00:17:08;;;;;;;;;;;18.00;80.50;;;;;;5114845;28;19916;-62
2022/11/22 00:19:34;;;;;;;;;;;18.20;79.80;;;;;;5116761;28;19964;-61
2022/11/22 00:22:01;;;;;;;;;;;18.20;78.50;;;;;;5116525;28;19950;-64
2022/11/22 00:24:28;;;;;;;;;;;18.30;78.60;;;;;;5093239;28;19912;-62
2022/11/22 00:26:55;;;;;;;;;;;18.40;80.30;;;;;;5095505;28;19982;-60
2022/11/22 00:29:21;;;;;;;;;;;18.30;78.60;;;;;;5095678;28;20309;-61
2022/11/22 00:31:48;;;;;;;;;;;18.50;79.10;;;;;;5094604;28;19916;-62
2022/11/22 00:34:15;;;;;;;;;;;18.40;77.40;;;;;;5095610;28;20339;-64
2022/11/22 00:36:41;;;;;;;;;;;18.50;79.60;;;;;;5095746;28;19915;-61
2022/11/22 00:39:08;;;;;;;;;;;18.60;77.70;;;;;;5095147;28;19928;-66
2022/11/22 00:41:35;;;;;;;;;;;18.70;77.60;;;;;;5095511;28;20345;-62
2022/11/22 00:44:01;;;;;;;;;;;19.00;76.90;;;;;;5095264;28;19912;-63
2022/11/22 00:46:28;;;;;;;;;;;19.20;76.90;;;;;;5095305;28;19924;-65
2022/11/22 00:48:55;;;;;;;;;;;19.60;75.70;;;;;;5095084;28;19908;-63
2022/11/22 00:51:22;;;;;;;;;;;19.80;75.90;;;;;;5095145;28;20397;-62
2022/11/22 00:53:48;;;;;;;;;;;20.10;75.40;;;;;;5095297;28;19937;-62
2022/11/22 00:56:15;;;;;;;;;;;20.80;73.80;;;;;;5095054;28;19920;-61
2022/11/22 00:58:42;;;;;;;;;;;21.20;74.50;;;;;;5095252;28;20007;-63
2022/11/22 01:01:08;;;;;;;;;;;21.70;74.70;;;;;;5094617;28;19919;-61
2022/11/22 01:03:35;;;;;;;;;;;22.10;72.30;;;;;;5094669;28;19912;-60
2022/11/22 01:06:02;;;;;;;;;;;22.10;72.10;;;;;;5095670;28;20321;-60
2022/11/22 01:08:28;;;;;;;;;;;21.90;71.80;;;;;;5095291;28;19915;-60
2022/11/22 01:10:56;;;;;;;;;;;21.80;72.40;;;;;;5095583;28;19916;-60
2022/11/22 01:13:23;;;;;;;;;;;21.70;72.30;;;;;;5095564;28;19912;-61
2022/11/22 01:15:49;;;;;;;;;;;21.90;72.00;;;;;;5094562;28;19912;-62
2022/11/22 01:18:16;;;;;;;;;;;22.40;72.30;;;;;;5095342;28;20392;-62
2022/11/22 01:20:43;;;;;;;;;;;22.70;71.00;;;;;;5095348;28;19908;-62
2022/11/22 01:23:10;;;;;;;;;;;22.40;70.60;;;;;;5094663;28;19995;-62
2022/11/22 01:25:36;;;;;;;;;;;22.20;72.70;;;;;;5095344;28;19908;-61
2022/11/22 01:28:03;;;;;;;;;;;22.50;71.80;;;;;;5095091;28;19961;-60
2022/11/22 01:30:30;;;;;;;;;;;22.60;70.90;;;;;;5094109;28;19919;-61
2022/11/22 01:32:56;;;;;;;;;;;22.30;70.20;;;;;;5094796;28;19948;-60
2022/11/22 01:35:23;;;;;;;;;;;21.90;71.30;;;;;;5095019;28;19908;-61
2022/11/22 01:37:50;;;;;;;;;;;22.10;72.70;;;;;;5095672;28;20294;-63
2022/11/22 01:40:17;;;;;;;;;;;21.70;71.40;;;;;;5094400;28;19908;-61
2022/11/22 01:42:43;;;;;;;;;;;21.20;71.50;;;;;;5086671;28;19912;-60
2022/11/22 01:45:28;;;;;;;;;;;20.90;70.40;;;;;;5089007;28;20010;-60
2022/11/22 01:47:56;;;;;;;;;;;20.60;72.00;;;;;;5094800;28;20263;-61
2022/11/22 01:50:23;;;;;;;;;;;20.70;73.90;;;;;;5094926;28;20002;-61
2022/11/22 01:52:50;;;;;;;;;;;20.50;72.80;;;;;;5094781;28;19961;-61
2022/11/22 01:55:16;;;;;;;;;;;20.40;73.00;;;;;;5099138;28;20339;-62
2022/11/22 01:57:43;;;;;;;;;;;20.20;73.70;;;;;;5115127;28;19916;-61
2022/11/22 02:00:12;;;;;;;;;;;20.30;72.60;;;;;;5113558;28;19912;-61
2022/11/22 02:02:39;;;;;;;;;;;20.40;72.50;;;;;;5114535;28;19998;-61
2022/11/22 02:05:07;;;;;;;;;;;20.40;74.00;;;;;;5114676;28;19961;-61
2022/11/22 02:07:36;;;;;;;;;;;20.60;73.50;;;;;;5115015;28;19950;-61
2022/11/22 02:10:03;;;;;;;;;;;20.70;73.30;;;;;;5114769;28;20003;-62
2022/11/22 02:12:31;;;;;;;;;;;20.70;72.90;;;;;;5114684;28;19908;-62
2022/11/22 02:14:57;;;;;;;;;;;20.50;72.30;;;;;;5111136;28;20048;-62
2022/11/22 02:17:25;;;;;;;;;;;20.40;73.60;;;;;;5114553;28;20080;-62
2022/11/22 02:19:52;;;;;;;;;;;20.40;72.30;;;;;;5114572;28;19912;-61
2022/11/22 02:22:34;;;;;;;;;;;20.50;72.10;;;;;;5114513;28;20372;-61
2022/11/22 02:25:03;;;;;;;;;;;20.20;74.10;;;;;;5114376;28;20303;-61
2022/11/22 02:27:30;;;;;;;;;;;20.50;74.60;;;;;;5114309;28;19955;-61
2022/11/22 02:29:56;;;;;;;;;;;20.60;73.80;;;;;;5113132;28;19912;-61
2022/11/22 02:32:23;;;;;;;;;;;20.80;72.60;;;;;;5114262;28;19915;-61
2022/11/22 02:34:50;;;;;;;;;;;20.70;72.40;;;;;;5113307;28;19915;-61
2022/11/22 02:37:21;;;;;;;;;;;20.60;73.00;;;;;;5114143;28;19969;-62
2022/11/22 02:39:49;;;;;;;;;;;20.40;73.80;;;;;;5114257;28;19916;-61
2022/11/22 02:42:16;;;;;;;;;;;20.40;74.20;;;;;;5114233;28;19912;-61
2022/11/22 02:44:42;;;;;;;;;;;20.60;74.10;;;;;;5112132;28;19915;-62
2022/11/22 02:47:09;;;;;;;;;;;20.70;74.90;;;;;;5112390;28;19912;-62
2022/11/22 02:49:36;;;;;;;;;;;20.90;74.10;;;;;;5095930;28;20002;-61
2022/11/22 02:52:03;;;;;;;;;;;21.10;73.10;;;;;;5113903;28;19931;-61
2022/11/22 02:54:29;;;;;;;;;;;21.30;73.10;;;;;;5113105;28;19961;-61
2022/11/22 02:56:56;;;;;;;;;;;21.30;73.20;;;;;;5113476;28;19920;-61
2022/11/22 02:59:23;;;;;;;;;;;21.30;72.40;;;;;;5111626;28;20425;-61
2022/11/22 03:01:49;;;;;;;;;;;21.40;72.80;;;;;;5113941;28;19908;-62
2022/11/22 03:04:23;;;;;;;;;;;21.10;72.80;;;;;;5113643;28;19914;-62
2022/11/22 03:06:51;;;;;;;;;;;21.10;73.60;;;;;;5113735;28;19915;-62
2022/11/22 03:09:17;;;;;;;;;;;21.20;74.50;;;;;;5113818;28;19908;-61
2022/11/22 03:11:46;;;;;;;;;;;21.10;73.60;;;;;;5113930;28;19915;-61
2022/11/22 03:14:14;;;;;;;;;;;21.20;73.60;;;;;;5111736;28;19911;-60
2022/11/22 03:16:41;;;;;;;;;;;21.30;72.80;;;;;;5110779;28;19912;-62
2022/11/22 03:19:08;;;;;;;;;;;21.40;72.60;;;;;;5091547;28;19943;-62
2022/11/22 03:21:36;;;;;;;;;;;21.50;72.80;;;;;;5092042;28;20011;-64
2022/11/22 03:24:03;;;;;;;;;;;21.50;72.00;;;;;;5091753;28;19908;-61
2022/11/22 03:26:29;;;;;;;;;;;21.50;72.60;;;;;;5092135;28;19961;-63
2022/11/22 03:28:56;;;;;;;;;;;21.60;73.00;;;;;;5092230;28;19912;-62
2022/11/22 03:31:23;;;;;;;;;;;21.40;73.10;;;;;;5092402;28;19919;-61
2022/11/22 03:33:49;;;;;;;;;;;21.20;72.80;;;;;;5074548;28;20370;-62
2022/11/22 03:36:16;;;;;;;;;;;21.10;73.20;;;;;;5092803;28;20002;-61
2022/11/22 03:38:43;;;;;;;;;;;21.30;72.20;;;;;;5092436;28;20380;-62
2022/11/22 03:41:10;;;;;;;;;;;21.50;72.00;;;;;;5092391;28;19986;-61
2022/11/22 03:43:37;;;;;;;;;;;21.40;73.50;;;;;;5099271;28;20384;-61
2022/11/22 03:46:04;;;;;;;;;;;21.60;73.10;;;;;;5100580;28;20366;-61
2022/11/22 03:48:31;;;;;;;;;;;21.80;72.30;;;;;;5097227;28;20354;-60
2022/11/22 03:51:04;;;;;;;;;;;21.90;72.20;;;;;;5096911;28;19915;-61
2022/11/22 03:53:31;;;;;;;;;;;21.80;73.00;;;;;;5095861;28;20274;-61
2022/11/22 03:55:58;;;;;;;;;;;21.90;72.90;;;;;;5096944;28;19924;-60
2022/11/22 03:58:24;;;;;;;;;;;21.90;72.70;;;;;;5077217;28;19920;-61
2022/11/22 04:00:51;;;;;;;;;;;21.90;72.60;;;;;;5076444;28;20003;-61
2022/11/22 04:03:18;;;;;;;;;;;21.90;72.10;;;;;;5081146;28;19920;-62
2022/11/22 04:05:45;;;;;;;;;;;22.10;72.20;;;;;;5096256;28;19921;-61
2022/11/22 04:08:11;;;;;;;;;;;21.90;72.60;;;;;;5096225;28;19915;-60
2022/11/22 04:10:38;;;;;;;;;;;22.00;73.00;;;;;;5096023;28;19912;-60
2022/11/22 04:13:05;;;;;;;;;;;22.10;72.40;;;;;;5078940;28;19920;-61
2022/11/22 04:15:31;;;;;;;;;;;21.90;74.30;;;;;;5076199;28;19920;-60
2022/11/22 04:17:58;;;;;;;;;;;22.10;72.50;;;;;;5076134;28;19920;-60
2022/11/22 04:23:15;;;;;;;;;;;22.30;72.40;;;;;;5076496;28;19932;-60
2022/11/22 04:25:46;;;;;;;;;;;22.30;73.50;;;;;;5075193;28;19912;-60
2022/11/22 04:28:14;;;;;;;;;;;22.40;73.20;;;;;;5059867;28;19919;-60
2022/11/22 04:33:25;;;;;;;;;;;22.30;73.00;;;;;;5076184;28;19915;-61
2022/11/22 04:35:52;;;;;;;;;;;22.20;72.50;;;;;;5076225;28;19912;-62
2022/11/22 04:38:19;;;;;;;;;;;22.20;73.80;;;;;;5075817;28;19917;-60
2022/11/22 04:40:46;;;;;;;;;;;22.30;72.10;;;;;;5073932;28;20315;-61
2022/11/22 04:46:08;;;;;;;;;;;22.20;73.40;;;;;;5065874;28;19924;-61
2022/11/22 04:48:35;;;;;;;;;;;22.40;73.10;;;;;;5066936;28;19942;-61
2022/11/22 04:53:47;;;;;;;;;;;22.20;73.40;;;;;;5075940;28;19915;-63
2022/11/22 04:56:14;;;;;;;;;;;22.30;72.60;;;;;;5086085;28;19965;-61
2022/11/22 04:58:40;;;;;;;;;;;22.30;74.80;;;;;;5093391;28;20007;-62
2022/11/22 05:01:08;;;;;;;;;;;22.30;73.20;;;;;;5092499;28;19919;-62
2022/11/22 05:03:34;;;;;;;;;;;22.40;75.20;;;;;;5095474;28;20252;-61
2022/11/22 05:06:02;;;;;;;;;;;22.30;73.50;;;;;;5095014;28;19908;-61
2022/11/22 05:08:29;;;;;;;;;;;22.30;74.30;;;;;;5095313;28;20294;-63
2022/11/22 05:10:56;;;;;;;;;;;22.10;73.30;;;;;;5094355;28;19912;-61
2022/11/22 05:13:36;;;;;;;;;;;22.30;73.70;;;;;;5095640;28;19908;-62
2022/11/22 05:16:04;;;;;;;;;;;22.40;73.00;;;;;;5095126;28;20285;-65
2022/11/22 05:18:31;;;;;;;;;;;22.30;74.20;;;;;;5094916;28;19920;-61
2022/11/22 05:20:59;;;;;;;;;;;22.30;73.70;;;;;;5094685;28;19915;-62
2022/11/22 05:26:11;;;;;;;;;;;22.20;73.00;;;;;;5094983;28;19934;-61
2022/11/22 05:28:38;;;;;;;;;;;22.10;73.20;;;;;;5094519;28;20271;-62
2022/11/22 05:31:09;;;;;;;;;;;22.10;74.40;;;;;;5094905;28;19954;-62
2022/11/22 05:33:37;;;;;;;;;;;22.10;73.50;;;;;;5094556;28;19908;-62
2022/11/22 05:36:04;;;;;;;;;;;22.10;74.60;;;;;;5095198;28;19909;-61
2022/11/22 05:38:31;;;;;;;;;;;22.10;75.00;;;;;;5094149;28;19950;-63
2022/11/22 05:40:57;;;;;;;;;;;22.00;75.00;;;;;;5093565;28;19912;-62
2022/11/22 05:43:24;;;;;;;;;;;22.00;75.00;;;;;;5094911;28;19934;-62
2022/11/22 05:45:51;;;;;;;;;;;22.00;74.50;;;;;;5094969;28;20349;-63
2022/11/22 05:48:17;;;;;;;;;;;21.90;75.80;;;;;;5094716;28;20305;-62
2022/11/22 05:50:46;;;;;;;;;;;21.90;75.70;;;;;;5094218;28;20007;-60
2022/11/22 05:53:12;;;;;;;;;;;21.90;76.40;;;;;;5092554;28;19930;-64
2022/11/22 05:55:39;;;;;;;;;;;21.80;76.70;;;;;;5091237;28;19927;-61
2022/11/22 05:58:06;;;;;;;;;;;22.00;75.50;;;;;;5092601;28;19955;-61
2022/11/22 06:00:32;;;;;;;;;;;22.00;75.90;;;;;;5092241;28;20393;-65
2022/11/22 06:03:00;;;;;;;;;;;22.00;75.50;;;;;;5092053;28;19915;-62
2022/11/22 06:05:27;;;;;;;;;;;21.90;75.00;;;;;;5076710;28;19999;-62
2022/11/22 06:07:56;;;;;;;;;;;21.90;75.90;;;;;;5071542;28;19912;-61
2022/11/22 06:10:23;;;;;;;;;;;21.90;75.30;;;;;;5083150;28;19916;-62
2022/11/22 06:12:50;;;;;;;;;;;21.80;76.70;;;;;;5091624;28;19920;-61
2022/11/22 06:15:16;;;;;;;;;;;21.80;76.20;;;;;;5092197;28;19966;-62
2022/11/22 06:17:43;;;;;;;;;;;21.70;75.80;;;;;;5091600;28;19959;-60
2022/11/22 06:20:10;;;;;;;;;;;21.60;76.10;;;;;;5092136;28;19908;-61
2022/11/22 06:22:37;;;;;;;;;;;21.60;76.00;;;;;;5091425;28;19908;-65
2022/11/22 06:25:04;;;;;;;;;;;21.70;76.30;;;;;;5091085;28;19912;-61
2022/11/22 06:27:30;;;;;;;;;;;21.80;76.00;;;;;;5091942;28;20286;-61
2022/11/22 06:29:57;;;;;;;;;;;21.70;76.20;;;;;;5091588;28;19920;-64
2022/11/22 06:32:24;;;;;;;;;;;21.60;77.50;;;;;;5091825;28;20002;-62
2022/11/22 06:34:50;;;;;;;;;;;21.60;76.10;;;;;;5091452;28;19912;-61
2022/11/22 06:37:17;;;;;;;;;;;21.80;76.20;;;;;;5091230;28;19950;-60
2022/11/22 06:39:44;;;;;;;;;;;21.70;77.20;;;;;;5090164;28;19912;-60
2022/11/22 06:42:10;;;;;;;;;;;21.80;77.60;;;;;;5090762;28;19955;-61
2022/11/22 06:44:37;;;;;;;;;;;21.70;76.90;;;;;;5091273;28;19909;-61
2022/11/22 06:47:04;;;;;;;;;;;21.70;76.60;;;;;;5091464;28;19908;-61
2022/11/22 06:49:30;;;;;;;;;;;21.70;75.90;;;;;;5091658;28;19912;-66
2022/11/22 06:51:59;;;;;;;;;;;21.70;76.70;;;;;;5090389;28;19955;-62
2022/11/22 06:54:25;;;;;;;;;;;21.70;77.20;;;;;;5089192;28;20282;-65
2022/11/22 06:56:52;;;;;;;;;;;21.70;77.20;;;;;;5107391;28;19931;-63
2022/11/22 06:59:19;;;;;;;;;;;21.50;76.70;;;;;;5111145;28;19923;-63
2022/11/22 07:01:45;;;;;;;;;;;21.50;76.70;;;;;;5110953;28;19912;-63
2022/11/22 07:04:12;;;;;;;;;;;21.50;77.20;;;;;;5111196;28;19918;-64
2022/11/22 07:06:39;;;;;;;;;;;21.50;76.80;;;;;;5110937;28;19975;-61
2022/11/22 07:09:07;;;;;;;;;;;21.40;78.00;;;;;;5109158;28;19923;-63
2022/11/22 07:11:34;;;;;;;;;;;21.40;77.10;;;;;;5110297;28;19923;-64
2022/11/22 07:14:02;;;;;;;;;;;21.40;77.70;;;;;;5111549;28;19915;-62
2022/11/22 07:16:28;;;;;;;;;;;21.40;77.90;;;;;;5111487;28;20002;-62
2022/11/22 07:18:55;;;;;;;;;;;21.40;78.30;;;;;;5111319;28;19916;-60
2022/11/22 07:21:23;;;;;;;;;;;21.40;78.10;;;;;;5110327;28;19918;-61
2022/11/22 07:23:53;;;;;;;;;;;21.30;77.80;;;;;;5109584;28;19928;-60
2022/11/22 07:26:21;;;;;;;;;;;21.10;78.40;;;;;;5108611;28;19981;-60
2022/11/22 07:28:48;;;;;;;;;;;21.10;79.80;;;;;;5108647;28;20364;-61
2022/11/22 07:31:15;;;;;;;;;;;21.00;77.80;;;;;;5104919;28;19911;-65
2022/11/22 07:33:43;;;;;;;;;;;20.90;79.00;;;;;;5105137;28;19919;-61
2022/11/22 07:36:17;;;;;;;;;;;20.90;79.10;;;;;;5104161;28;19912;-62
2022/11/22 07:38:45;;;;;;;;;;;20.80;80.10;;;;;;5103139;28;19924;-63
2022/11/22 07:41:12;;;;;;;;;;;20.90;79.20;;;;;;5085493;28;19920;-61
2022/11/22 07:43:38;;;;;;;;;;;20.80;79.20;;;;;;5104803;28;20263;-64
2022/11/22 07:46:07;;;;;;;;;;;20.80;79.00;;;;;;5099943;28;19915;-63
2022/11/22 07:48:33;;;;;;;;;;;20.70;79.30;;;;;;5104793;28;20073;-61
2022/11/22 07:51:04;;;;;;;;;;;20.60;79.50;;;;;;5104252;28;19938;-61
2022/11/22 07:53:31;;;;;;;;;;;20.50;79.90;;;;;;5104660;28;19916;-63
2022/11/22 07:56:02;;;;;;;;;;;20.40;80.00;;;;;;5104759;28;19927;-61
2022/11/22 07:58:28;;;;;;;;;;;20.40;80.10;;;;;;5104685;28;19946;-62
2022/11/22 08:00:55;;;;;;;;;;;20.50;80.00;;;;;;5101177;28;19958;-63
2022/11/22 08:03:22;;;;;;;;;;;20.40;80.40;;;;;;5104461;28;19912;-63
2022/11/22 08:05:48;;;;;;;;;;;20.30;81.70;;;;;;5103897;28;19916;-62
2022/11/22 08:08:15;;;;;;;;;;;20.30;80.60;;;;;;5104743;28;20011;-61
2022/11/22 08:10:43;;;;;;;;;;;20.30;81.00;;;;;;5104716;28;19912;-62
2022/11/22 08:13:13;;;;;;;;;;;20.20;82.20;;;;;;5104651;28;20168;-61
2022/11/22 08:15:39;;;;;;;;;;;20.20;80.90;;;;;;5101838;28;19922;-63
2022/11/22 08:18:06;;;;;;;;;;;20.30;81.00;;;;;;5104653;28;20382;-61
2022/11/22 08:20:32;;;;;;;;;;;20.20;80.90;;;;;;5103122;28;19912;-63
2022/11/22 08:22:59;;;;;;;;;;;20.20;81.60;;;;;;5104124;28;19943;-61
2022/11/22 08:25:26;;;;;;;;;;;20.20;81.70;;;;;;5104645;28;19931;-61
2022/11/22 08:27:53;;;;;;;;;;;20.10;82.30;;;;;;5104010;28;19923;-61
2022/11/22 08:30:19;;;;;;;;;;;20.10;82.70;;;;;;5108013;28;19912;-61
2022/11/22 08:32:46;;;;;;;;;;;20.00;82.30;;;;;;5112926;28;20339;-61
2022/11/22 08:35:13;;;;;;;;;;;20.00;83.70;;;;;;5116773;28;19908;-61
2022/11/22 08:37:39;;;;;;;;;;;19.90;82.40;;;;;;5116465;28;20392;-61
2022/11/22 08:40:06;;;;;;;;;;;19.90;82.70;;;;;;5116630;28;19953;-61
2022/11/22 08:42:33;;;;;;;;;;;19.90;82.80;;;;;;5116495;28;20345;-61
2022/11/22 08:45:00;;;;;;;;;;;19.80;82.60;;;;;;5081655;28;19916;-61
2022/11/22 08:47:26;;;;;;;;;;;19.80;83.00;;;;;;5116537;28;19915;-60
2022/11/22 08:49:53;;;;;;;;;;;19.70;82.10;;;;;;5116411;28;19912;-61
2022/11/22 08:52:20;;;;;;;;;;;19.60;82.50;;;;;;5116429;28;19915;-60
2022/11/22 08:54:46;;;;;;;;;;;19.60;83.60;;;;;;5116148;28;19908;-60
2022/11/22 08:57:13;;;;;;;;;;;19.60;82.90;;;;;;5115998;28;19973;-61
2022/11/22 08:59:40;;;;;;;;;;;19.60;83.40;;;;;;5114510;28;19908;-60
2022/11/22 09:02:07;;;;;;;;;;;19.50;83.40;;;;;;5116054;28;20254;-61
2022/11/22 09:04:33;;;;;;;;;;;19.50;83.60;;;;;;5116251;28;19961;-60
2022/11/22 09:07:00;;;;;;;;;;;19.40;83.00;;;;;;5115825;28;19930;-60
2022/11/22 09:09:27;;;;;;;;;;;19.40;83.90;;;;;;5116094;28;20396;-60
2022/11/22 09:11:53;;;;;;;;;;;19.30;83.10;;;;;;5116118;28;19914;-60
2022/11/22 09:14:20;;;;;;;;;;;19.30;84.40;;;;;;5114684;28;19961;-61
2022/11/22 09:16:47;;;;;;;;;;;19.30;83.20;;;;;;5114142;28;19911;-62
2022/11/22 09:19:14;;;;;;;;;;;19.20;83.50;;;;;;5115745;28;20097;-66
2022/11/22 09:21:40;;;;;;;;;;;19.20;84.30;;;;;;5113062;28;20018;-62
2022/11/22 09:24:07;;;;;;;;;;;19.20;85.00;;;;;;5113869;28;19914;-67
2022/11/22 09:26:34;;;;;;;;;;;19.10;83.90;;;;;;5113488;28;19908;-67
2022/11/22 09:29:01;;;;;;;;;;;19.10;83.90;;;;;;5111324;28;19908;-62
2022/11/22 09:31:30;;;;;;;;;;;19.10;84.10;;;;;;5110619;28;19923;-67
2022/11/22 09:33:57;;;;;;;;;;;19.10;84.30;;;;;;5112991;28;19998;-65
2022/11/22 09:36:27;;;;;;;;;;;19.10;84.60;;;;;;5113379;28;19941;-67
2022/11/22 09:38:57;;;;;;;;;;;19.00;84.40;;;;;;5108060;28;19923;-66
2022/11/22 09:41:47;;;;;;;;;;;19.00;84.50;;;;;;5106788;28;19912;-63
2022/11/22 09:44:26;;;;;;;;;;;19.00;84.60;;;;;;5103136;28;19911;-66
2022/11/22 09:46:53;;;;;;;;;;;18.90;84.50;;;;;;5105895;28;19916;-64
2022/11/22 09:49:22;;;;;;;;;;;18.80;84.60;;;;;;5106274;28;20010;-68
2022/11/22 09:51:53;;;;;;;;;;;18.80;85.50;;;;;;5106313;28;20278;-66
2022/11/22 09:54:25;;;;;;;;;;;18.80;85.30;;;;;;5106450;28;19912;-66
2022/11/22 09:56:53;;;;;;;;;;;18.70;85.20;;;;;;5103146;28;19969;-68
2022/11/22 09:59:25;;;;;;;;;;;18.70;86.70;;;;;;5105756;28;19930;-67
2022/11/22 10:01:52;;;;;;;;;;;18.70;87.10;;;;;;5105961;28;19916;-67
2022/11/22 10:04:24;;;;;;;;;;;18.70;87.40;;;;;;5106361;28;19961;-68
2022/11/22 10:06:56;;;;;;;;;;;18.70;88.30;;;;;;5105927;28;20010;-68
2022/11/22 10:09:41;;;;;;;;;;;18.70;86.50;;;;;;5106097;28;19912;-68
2022/11/22 10:12:15;;;;;;;;;;;18.70;86.90;;;;;;5104308;28;19916;-69
2022/11/22 10:14:48;;;;;;;;;;;18.60;87.50;;;;;;5105614;28;19920;-67
2022/11/22 10:17:20;;;;;;;;;;;18.60;86.40;;;;;;5105981;28;19911;-66
2022/11/22 10:19:51;;;;;;;;;;;18.60;86.80;;;;;;5105884;28;19919;-69
2022/11/22 10:22:18;;;;;;;;;;;18.60;86.70;;;;;;5105923;28;19916;-67
2022/11/22 10:24:45;;;;;;;;;;;18.50;86.70;;;;;;5104591;28;19915;-67
2022/11/22 10:27:18;;;;;;;;;;;18.40;86.90;;;;;;5102808;28;19912;-66
2022/11/22 10:29:49;;;;;;;;;;;18.50;86.50;;;;;;5105635;28;19927;-67
2022/11/22 10:32:15;;;;;;;;;;;18.50;88.30;;;;;;5105864;28;19919;-67
2022/11/22 10:35:05;;;;;;;;;;;18.40;86.60;;;;;;5105546;28;19912;-67
2022/11/22 10:37:40;;;;;;;;;;;18.30;87.00;;;;;;5076042;28;19948;-66
2022/11/22 10:40:45;;;;;;;;;;;18.30;86.70;;;;;;5105264;28;19916;-62
2022/11/22 10:43:18;;;;;;;;;;;18.30;88.10;;;;;;5040842;28;19916;-68
2022/11/22 10:46:05;;;;;;;;;;;18.30;87.80;;;;;;5041830;28;19916;-68
2022/11/22 10:48:37;;;;;;;;;;;18.30;88.80;;;;;;5076081;28;19911;-67
2022/11/22 10:51:39;;;;;;;;;;;18.20;87.30;;;;;;5104922;28;19931;-68
2022/11/22 10:54:08;;;;;;;;;;;18.20;87.00;;;;;;5041902;28;19920;-67
2022/11/22 10:56:48;;;;;;;;;;;18.20;87.30;;;;;;5090965;28;19974;-67
2022/11/22 10:59:15;;;;;;;;;;;18.20;87.20;;;;;;5103707;28;19931;-65
2022/11/22 11:02:00;;;;;;;;;;;18.10;87.00;;;;;;5105182;28;19916;-68
2022/11/22 11:04:35;;;;;;;;;;;18.10;87.20;;;;;;5104894;28;19912;-67
2022/11/22 11:07:04;;;;;;;;;;;18.10;87.50;;;;;;5104903;28;19912;-64
2022/11/22 11:09:45;;;;;;;;;;;18.20;88.50;;;;;;5105185;28;20285;-67
2022/11/22 11:12:15;;;;;;;;;;;18.10;88.10;;;;;;5103367;28;20266;-67
2022/11/22 11:15:07;;;;;;;;;;;18.10;88.00;;;;;;5104785;28;19912;-62
2022/11/22 11:17:36;;;;;;;;;;;18.10;88.20;;;;;;5080526;28;20535;-67
2022/11/22 11:20:05;;;;;;;;;;;18.00;87.80;;;;;;5105201;28;19994;-68
2022/11/22 11:22:33;;;;;;;;;;;18.00;88.40;;;;;;5105037;28;19912;-65
2022/11/22 11:25:19;;;;;;;;;;;18.00;87.90;;;;;;5104710;28;19920;-65
2022/11/22 11:27:46;;;;;;;;;;;18.00;88.20;;;;;;5092573;28;19916;-66
2022/11/22 11:30:13;;;;;;;;;;;18.00;88.40;;;;;;5106229;28;19908;-67
2022/11/22 11:32:53;;;;;;;;;;;17.90;89.50;;;;;;5111360;28;19908;-68
2022/11/22 11:35:26;;;;;;;;;;;17.90;88.90;;;;;;5111659;28;19911;-67
2022/11/22 11:37:53;;;;;;;;;;;17.90;89.00;;;;;;5111468;28;19962;-67
2022/11/22 11:40:27;;;;;;;;;;;17.90;88.60;;;;;;5109587;28;19915;-67
2022/11/22 11:43:11;;;;;;;;;;;17.80;88.40;;;;;;5111398;28;19927;-67
2022/11/22 11:45:38;;;;;;;;;;;17.80;89.10;;;;;;5110987;28;19986;-68
2022/11/22 11:48:24;;;;;;;;;;;17.80;88.70;;;;;;5111415;28;20007;-67
2022/11/22 11:50:51;;;;;;;;;;;17.80;89.20;;;;;;5111266;28;19915;-68
2022/11/22 11:53:24;;;;;;;;;;;17.90;88.90;;;;;;5093193;28;19916;-67
2022/11/22 11:55:51;;;;;;;;;;;17.80;89.60;;;;;;5109423;28;19922;-67
2022/11/22 11:58:23;;;;;;;;;;;17.80;89.20;;;;;;5109714;28;20030;-61
2022/11/22 12:00:50;;;;;;;;;;;17.80;89.20;;;;;;5111055;28;19908;-67
2022/11/22 12:03:18;;;;;;;;;;;17.70;89.40;;;;;;5111371;28;19954;-68
2022/11/22 12:05:45;;;;;;;;;;;17.70;90.10;;;;;;5111413;28;19912;-66
2022/11/22 12:08:32;;;;;;;;;;;17.60;89.90;;;;;;5113865;28;19918;-67
2022/11/22 12:11:04;;;;;;;;;;;17.60;89.30;;;;;;5114856;28;20432;-67
2022/11/22 12:13:44;;;;;;;;;;;17.60;89.30;;;;;;5117217;28;19908;-66
2022/11/22 12:16:46;;;;;;;;;;;17.60;89.80;;;;;;5117007;28;19968;-67
2022/11/22 12:19:41;;;;;;;;;;;17.60;89.40;;;;;;5054126;28;19917;-67
2022/11/22 12:22:29;;;;;;;;;;;17.60;90.30;;;;;;5103784;28;20335;-60
2022/11/22 12:24:58;;;;;;;;;;;17.60;90.30;;;;;;5115504;28;19918;-60
2022/11/22 12:27:25;;;;;;;;;;;17.70;90.90;;;;;;5116930;28;20274;-60
2022/11/22 12:29:52;;;;;;;;;;;17.60;90.20;;;;;;5116920;28;19912;-60
2022/11/22 12:32:27;;;;;;;;;;;17.60;90.30;;;;;;5116944;28;19915;-60
2022/11/22 12:34:57;;;;;;;;;;;17.50;90.20;;;;;;5116598;28;19907;-60
2022/11/22 12:37:27;;;;;;;;;;;17.50;90.30;;;;;;5116846;28;19907;-60
2022/11/22 12:39:56;;;;;;;;;;;17.50;90.20;;;;;;5114753;28;20263;-60
2022/11/22 12:42:26;;;;;;;;;;;17.50;90.20;;;;;;5116665;28;19908;-60
2022/11/22 12:44:56;;;;;;;;;;;17.50;90.20;;;;;;5116339;28;19916;-62
2022/11/22 12:47:25;;;;;;;;;;;17.40;90.40;;;;;;5116649;28;19907;-63
2022/11/22 12:49:55;;;;;;;;;;;17.20;90.80;;;;;;5116626;28;20352;-63
2022/11/22 12:52:24;;;;;;;;;;;17.10;90.60;;;;;;5116554;28;19908;-63
2022/11/22 12:54:54;;;;;;;;;;;17.10;90.90;;;;;;5109190;28;19957;-63
2022/11/22 12:57:23;;;;;;;;;;;17.20;91.60;;;;;;5115218;28;20389;-63
2022/11/22 12:59:57;;;;;;;;;;;17.10;91.10;;;;;;5116285;28;19954;-61
2022/11/22 13:02:29;;;;;;;;;;;17.10;91.20;;;;;;5116395;28;19943;-60
2022/11/22 13:05:01;;;;;;;;;;;17.10;91.90;;;;;;5116241;28;19907;-60
2022/11/22 13:07:44;;;;;;;;;;;17.00;91.20;;;;;;5116416;28;19949;-63
2022/11/22 13:10:28;;;;;;;;;;;17.00;91.30;;;;;;5114764;28;19912;-63
2022/11/22 13:12:56;;;;;;;;;;;17.10;91.20;;;;;;5075399;28;20382;-60
2022/11/22 13:15:27;;;;;;;;;;;17.00;91.20;;;;;;5075415;28;19909;-62
2022/11/22 13:17:54;;;;;;;;;;;17.10;91.40;;;;;;5075427;28;19970;-61
2022/11/22 13:20:23;;;;;;;;;;;17.00;91.50;;;;;;5074653;28;19915;-61
2022/11/22 13:22:50;;;;;;;;;;;17.00;91.50;;;;;;5075036;28;19917;-61
2022/11/22 13:25:40;;;;;;;;;;;17.00;91.50;;;;;;5110571;28;19912;-60
2022/11/22 13:28:14;;;;;;;;;;;17.00;91.30;;;;;;5115832;28;19934;-61
2022/11/22 13:31:01;;;;;;;;;;;17.00;91.50;;;;;;5115660;28;19908;-61
2022/11/22 13:33:27;;;;;;;;;;;17.00;91.50;;;;;;5115702;28;19908;-60
2022/11/22 13:36:14;;;;;;;;;;;17.10;91.80;;;;;;5115672;28;20365;-62
2022/11/22 13:38:42;;;;;;;;;;;17.10;91.90;;;;;;5114402;28;20374;-61
2022/11/22 13:41:23;;;;;;;;;;;17.10;92.70;;;;;;5114173;28;19994;-61
2022/11/22 13:43:53;;;;;;;;;;;17.10;91.90;;;;;;5115386;28;19908;-61
2022/11/22 13:46:38;;;;;;;;;;;17.10;92.50;;;;;;5115595;28;19914;-61
2022/11/22 13:49:27;;;;;;;;;;;17.00;92.30;;;;;;5115310;28;19980;-61
2022/11/22 13:51:58;;;;;;;;;;;17.00;92.80;;;;;;5115428;28;20453;-61
2022/11/22 13:54:36;;;;;;;;;;;17.00;92.70;;;;;;5113225;28;19908;-61
2022/11/22 13:57:21;;;;;;;;;;;17.00;92.80;;;;;;5115051;28;20370;-61
2022/11/22 14:00:07;;;;;;;;;;;17.00;91.80;;;;;;5115090;28;20387;-62
2022/11/22 14:02:34;;;;;;;;;;;17.00;92.40;;;;;;5115132;28;19908;-62
2022/11/22 14:05:01;;;;;;;;;;;17.00;92.00;;;;;;5114803;28;19908;-61
2022/11/22 14:07:34;;;;;;;;;;;17.00;91.50;;;;;;5112727;28;19908;-62
2022/11/22 14:10:01;;;;;;;;;;;17.00;91.70;;;;;;5114957;28;20271;-61
2022/11/22 14:12:57;;;;;;;;;;;16.90;91.50;;;;;;5113604;28;19916;-62
2022/11/22 14:15:24;;;;;;;;;;;16.90;91.70;;;;;;5101356;28;19908;-61
2022/11/22 14:17:54;;;;;;;;;;;17.00;91.50;;;;;;5114678;28;20022;-61
2022/11/22 14:20:38;;;;;;;;;;;17.00;91.80;;;;;;5114771;28;19918;-62
2022/11/22 14:23:08;;;;;;;;;;;17.00;92.30;;;;;;5112558;28;20524;-60
2022/11/22 14:25:38;;;;;;;;;;;16.90;92.50;;;;;;5114649;28;19915;-61
2022/11/22 14:28:22;;;;;;;;;;;16.80;92.30;;;;;;5114609;28;19915;-62
2022/11/22 14:30:50;;;;;;;;;;;16.80;92.10;;;;;;5114284;28;19912;-64
2022/11/22 14:33:24;;;;;;;;;;;16.80;92.20;;;;;;5114504;28;19907;-61
2022/11/22 14:36:06;;;;;;;;;;;16.80;92.00;;;;;;5114514;28;20320;-62
2022/11/22 14:38:34;;;;;;;;;;;16.70;92.60;;;;;;5094869;28;19972;-61
2022/11/22 14:41:18;;;;;;;;;;;16.70;92.20;;;;;;5114125;28;19914;-62
2022/11/22 14:43:45;;;;;;;;;;;16.60;92.40;;;;;;5114252;28;19908;-61